Time;durP1;ratioP1;P1;durP2;ratioP2;P2;SDS_P1;SDS_P2;PMS_P1;PMS_P2;Temp;Humidity;BMP_temperature;BMP_pressure;BME280_temperature;BME280_humidity;BME280_pressure;Samples;Min_cycle;Max_cycle;Signal;HPM_P1;HPM_P2
2022/01/15 00:00:11;;;;;;;;;148.50;114.25;;;;;5.32;70.66;102764.06;5038464;28;45495;-56
2022/01/15 00:02:36;;;;;;;;;126.25;110.00;;;;;5.29;70.82;102764.09;5038997;28;45462;-53
2022/01/15 00:05:02;;;;;;;;;130.75;102.00;;;;;5.29;71.09;102766.72;5039091;28;45514;-57
2022/01/15 00:07:28;;;;;;;;;124.75;99.50;;;;;5.29;70.61;102757.97;5038314;28;45490;-57
2022/01/15 00:09:53;;;;;;;;;113.00;87.00;;;;;5.27;70.45;102755.38;5037621;28;45447;-58
2022/01/15 00:12:18;;;;;;;;;100.25;78.75;;;;;5.27;71.06;102754.50;5038267;28;45427;-52
2022/01/15 00:14:45;;;;;;;;;106.33;86.67;;;;;5.25;71.12;102754.50;5037106;28;46695;-53
2022/01/15 00:17:32;;;;;;;;;103.33;88.67;;;;;5.23;70.66;102752.78;5038135;28;45446;-56
2022/01/15 00:20:05;;;;;;;;;111.00;89.67;;;;;5.21;71.18;102751.91;5038215;28;45505;-58
2022/01/15 00:22:30;;;;;;;;;112.75;92.50;;;;;5.21;71.18;102757.13;5037327;28;45501;-57
2022/01/15 00:24:57;;;;;;;;;116.25;95.50;;;;;5.20;70.30;102753.66;5038714;28;46117;-54
2022/01/15 00:27:22;;;;;;;;;117.33;92.33;;;;;5.17;71.10;102742.38;5017861;28;45519;-51
2022/01/15 00:29:48;;;;;;;;;113.33;94.00;;;;;5.17;70.77;102744.97;5038817;28;45325;-57
2022/01/15 00:32:14;;;;;;;;;124.67;103.67;;;;;5.16;71.24;102746.72;5039152;28;45582;-57
2022/01/15 00:34:40;;;;;;;;;111.25;89.25;;;;;5.16;70.97;102745.84;5037454;28;45478;-56
2022/01/15 00:37:06;;;;;;;;;112.33;91.33;;;;;5.14;70.94;102751.09;5037726;28;45479;-56
2022/01/15 00:39:32;;;;;;;;;110.67;91.67;;;;;5.12;70.60;102742.38;5037286;28;45548;-57
2022/01/15 00:41:58;;;;;;;;;116.33;90.33;;;;;5.10;70.41;102738.91;5038159;28;45450;-52
2022/01/15 00:44:23;;;;;;;;;100.33;85.67;;;;;5.08;71.25;102731.97;5036606;28;45804;-53
2022/01/15 00:46:49;;;;;;;;;114.50;92.50;;;;;5.06;70.67;102733.72;5038648;28;45431;-57
2022/01/15 00:49:15;;;;;;;;;111.67;95.33;;;;;5.06;70.47;102737.19;5038523;28;45476;-54
2022/01/15 00:51:41;;;;;;;;;115.00;97.00;;;;;5.04;71.01;102733.72;5038672;28;45841;-56
2022/01/15 00:54:07;;;;;;;;;109.00;100.33;;;;;5.02;70.58;102727.63;5038390;28;45452;-58
2022/01/15 00:56:33;;;;;;;;;117.00;93.50;;;;;5.00;71.29;102730.25;5037346;28;47062;-57
2022/01/15 00:58:58;;;;;;;;;117.33;94.00;;;;;4.98;70.43;102729.41;5037982;28;45434;-55
2022/01/15 01:01:25;;;;;;;;;126.50;100.50;;;;;4.96;70.92;102719.81;5037040;28;45605;-55
2022/01/15 01:03:51;;;;;;;;;109.00;92.50;;;;;4.94;70.92;102722.44;5038946;28;45362;-56
2022/01/15 01:06:17;;;;;;;;;116.75;97.75;;;;;4.94;71.45;102722.44;5038704;28;45423;-51
2022/01/15 01:08:43;;;;;;;;;117.67;88.67;;;;;4.94;71.33;102724.19;5039733;28;45248;-57
2022/01/15 01:11:22;;;;;;;;;120.00;98.33;;;;;4.92;71.08;102715.50;5039727;28;45441;-58
2022/01/15 01:24:24;;;;;;;;;123.33;100.67;;;;;4.85;71.65;102708.56;5035829;28;45438;-57
2022/01/15 01:26:58;;;;;;;;;123.75;102.75;;;;;4.80;71.66;102699.84;5037981;28;45392;-57
2022/01/15 01:34:30;;;;;;;;;119.50;100.50;;;;;4.76;71.76;102683.34;5040897;28;46493;-56
2022/01/15 01:39:33;;;;;;;;;122.75;99.75;;;;;4.76;72.29;102680.75;5040825;28;45766;-52
2022/01/15 01:42:12;;;;;;;;;115.50;99.25;;;;;4.77;72.00;102685.09;5038995;28;45403;-54
2022/01/15 01:44:42;;;;;;;;;117.00;97.00;;;;;4.76;71.84;102685.97;5040679;28;45547;-57
2022/01/15 01:47:22;;;;;;;;;109.75;93.00;;;;;4.73;72.55;102688.56;5040649;28;45440;-56
2022/01/15 01:49:48;;;;;;;;;117.75;95.75;;;;;4.71;71.83;102685.09;5039839;28;45499;-57
2022/01/15 01:52:13;;;;;;;;;118.75;104.50;;;;;4.66;71.54;102685.13;5040716;28;45764;-58
2022/01/15 01:54:39;;;;;;;;;125.50;97.75;;;;;4.65;71.79;102680.75;5039286;28;45721;-58
2022/01/15 01:57:05;;;;;;;;;107.67;82.67;;;;;4.65;71.92;102687.72;5040768;28;45399;-58
2022/01/15 01:59:30;;;;;;;;;110.25;95.25;;;;;4.66;72.67;102681.63;5040520;28;45585;-58
2022/01/15 02:01:56;;;;;;;;;110.33;91.33;;;;;4.68;72.52;102674.69;5040746;28;45574;-58
2022/01/15 02:04:22;;;;;;;;;118.00;94.67;;;;;4.67;72.52;102673.81;5022527;28;46678;-58
2022/01/15 02:06:48;;;;;;;;;128.00;103.50;;;;;4.65;72.26;102672.94;5040948;28;45470;-58
2022/01/15 02:09:15;;;;;;;;;106.33;90.00;;;;;4.64;72.16;102662.50;5040565;28;45447;-58
2022/01/15 02:11:42;;;;;;;;;109.25;90.75;;;;;4.64;73.16;102662.50;5041074;28;45612;-58
2022/01/15 02:14:08;;;;;;;;;132.00;102.67;;;;;4.64;73.25;102671.19;5040559;28;45645;-58
2022/01/15 02:16:34;;;;;;;;;94.75;67.50;;;;;4.66;73.34;102665.97;5040546;28;45494;-58
2022/01/15 02:18:59;;;;;;;;;113.25;91.50;;;;;4.63;71.90;102656.41;5040365;28;45441;-59
2022/01/15 02:24:09;;;;;;;;;118.00;98.00;;;;;4.59;72.75;102661.66;5021903;28;45768;-57
2022/01/15 02:26:37;;;;;;;;;110.33;93.33;;;;;4.54;72.86;102661.69;5020566;28;45542;-58
2022/01/15 02:29:03;;;;;;;;;104.00;85.67;;;;;4.53;72.48;102664.28;5023299;28;45455;-58
2022/01/15 02:31:30;;;;;;;;;106.00;89.33;;;;;4.53;72.80;102667.78;5022499;28;45355;-58
2022/01/15 02:33:58;;;;;;;;;92.00;65.67;;;;;4.53;72.68;102662.56;5024770;28;46092;-58
2022/01/15 02:36:28;;;;;;;;;99.33;75.00;;;;;4.51;72.20;102659.09;5020522;28;45544;-58
2022/01/15 02:38:54;;;;;;;;;101.33;85.33;;;;;4.50;72.36;102665.16;5020811;28;45428;-58
2022/01/15 02:41:28;;;;;;;;;108.00;82.67;;;;;4.51;72.37;102653.00;5022306;28;45305;-58
2022/01/15 02:43:53;;;;;;;;;110.33;88.67;;;;;4.51;72.30;102656.47;5021071;28;45465;-58
2022/01/15 02:46:33;;;;;;;;;111.75;98.00;;;;;4.51;73.12;102655.63;5021598;28;45396;-58
2022/01/15 02:49:04;;;;;;;;;114.50;102.00;;;;;4.50;72.99;102652.09;5021993;28;45525;-58
2022/01/15 02:51:35;;;;;;;;;134.75;107.25;;;;;4.48;73.02;102652.13;5022753;28;45406;-58
2022/01/15 02:54:01;;;;;;;;;124.00;98.75;;;;;4.51;73.08;102650.41;5018743;28;45653;-58
2022/01/15 02:56:36;;;;;;;;;117.50;98.75;;;;;4.48;72.89;102643.41;5021172;28;45841;-58
2022/01/15 02:59:07;;;;;;;;;126.00;98.00;;;;;4.46;72.61;102633.00;5022934;28;45697;-58
2022/01/15 03:01:34;;;;;;;;;121.00;98.25;;;;;4.48;72.59;102632.97;5022493;28;45734;-58
2022/01/15 03:04:00;;;;;;;;;123.50;104.50;;;;;4.44;72.95;102632.13;5020298;28;45535;-58
2022/01/15 03:06:25;;;;;;;;;112.50;100.25;;;;;4.45;73.41;102620.81;5020681;28;45578;-58
2022/01/15 03:08:52;;;;;;;;;113.25;92.00;;;;;4.44;73.42;102631.28;5021825;28;45512;-58
2022/01/15 03:11:18;;;;;;;;;118.75;107.25;;;;;4.42;73.07;102619.94;5004327;28;45514;-58
2022/01/15 03:13:45;;;;;;;;;125.25;101.25;;;;;4.41;72.98;102618.22;5024105;28;45673;-57
2022/01/15 03:16:17;;;;;;;;;107.00;88.00;;;;;4.43;73.39;102625.19;5020175;28;45340;-58
2022/01/15 03:18:43;;;;;;;;;107.00;93.00;;;;;4.43;72.43;102621.72;5019048;28;45515;-58
2022/01/15 03:21:10;;;;;;;;;109.25;96.25;;;;;4.42;73.25;102619.94;5028148;28;45437;-58
2022/01/15 03:23:35;;;;;;;;;123.33;100.67;;;;;4.39;72.75;102628.66;5039526;28;46051;-58
2022/01/15 03:26:01;;;;;;;;;112.67;99.67;;;;;4.40;72.83;102629.53;5039728;28;45312;-58
2022/01/15 03:28:26;;;;;;;;;119.25;100.75;;;;;4.38;72.89;102619.09;5039710;28;45479;-58
2022/01/15 03:30:52;;;;;;;;;123.00;102.50;;;;;4.35;73.04;102613.03;5039307;28;45810;-58
2022/01/15 03:33:18;;;;;;;;;109.67;87.33;;;;;4.34;72.64;102608.66;5039372;28;45422;-58
2022/01/15 03:35:43;;;;;;;;;113.67;89.00;;;;;4.36;72.91;102604.34;5039034;28;45749;-57
2022/01/15 03:38:09;;;;;;;;;118.33;95.00;;;;;4.35;72.59;102600.88;5039480;28;45498;-58
2022/01/15 03:40:35;;;;;;;;;115.67;93.00;;;;;4.35;72.48;102594.78;5039342;28;45536;-58
2022/01/15 03:43:03;;;;;;;;;104.33;81.00;;;;;4.30;72.77;102592.19;5039342;28;46100;-58
2022/01/15 03:45:29;;;;;;;;;107.67;93.33;;;;;4.32;72.40;102589.56;5036493;28;45487;-59
2022/01/15 03:47:56;;;;;;;;;107.00;89.00;;;;;4.30;72.70;102586.09;5039301;28;45371;-57
2022/01/15 03:50:24;;;;;;;;;106.67;89.00;;;;;4.30;73.03;102591.31;5038714;28;45412;-58
2022/01/15 03:52:50;;;;;;;;;115.33;93.00;;;;;4.27;72.90;102589.59;5039096;28;45763;-58
2022/01/15 03:55:17;;;;;;;;;105.33;94.33;;;;;4.25;72.26;102582.63;5038850;28;45569;-58
2022/01/15 03:57:42;;;;;;;;;109.00;89.00;;;;;4.22;72.30;102580.91;5039420;28;45379;-58
2022/01/15 04:00:14;;;;;;;;;120.67;96.67;;;;;4.19;72.85;102578.31;5039043;28;45682;-58
2022/01/15 04:02:41;;;;;;;;;111.67;89.33;;;;;4.17;72.29;102578.28;5036663;28;46285;-57
2022/01/15 04:05:08;;;;;;;;;115.25;93.75;;;;;4.17;73.25;102572.22;5038855;28;45519;-58
2022/01/15 04:07:34;;;;;;;;;110.67;90.33;;;;;4.14;72.47;102569.63;5038949;28;45399;-58
2022/01/15 04:10:00;;;;;;;;;106.67;92.00;;;;;4.12;72.40;102561.81;5038830;28;45328;-58
2022/01/15 04:12:26;;;;;;;;;110.67;94.00;;;;;4.13;72.44;102563.56;5020549;28;46814;-58
2022/01/15 04:14:51;;;;;;;;;107.33;87.00;;;;;4.13;72.29;102553.13;5038868;28;45320;-58
2022/01/15 04:17:17;;;;;;;;;110.67;91.33;;;;;4.14;72.79;102548.75;5038914;28;45440;-58
2022/01/15 04:19:42;;;;;;;;;113.33;91.67;;;;;4.13;72.58;102547.03;5038408;28;45457;-58
2022/01/15 04:22:07;;;;;;;;;116.33;90.67;;;;;4.12;72.01;102548.78;5038364;28;46023;-58
2022/01/15 04:24:33;;;;;;;;;123.25;97.50;;;;;4.13;71.98;102552.25;5038441;28;45419;-58
2022/01/15 04:26:58;;;;;;;;;121.00;97.75;;;;;4.11;72.75;102549.66;5038828;28;45461;-58
2022/01/15 04:29:24;;;;;;;;;117.75;94.25;;;;;4.08;72.31;102549.66;5038666;28;45652;-58
2022/01/15 04:31:51;;;;;;;;;122.00;99.25;;;;;4.07;72.27;102552.25;5038508;28;46394;-58
2022/01/15 04:34:35;;;;;;;;;113.25;94.75;;;;;4.08;72.69;102548.78;5038503;28;45459;-58
2022/01/15 04:37:08;;;;;;;;;124.00;99.00;;;;;4.07;72.44;102529.66;5036128;28;45383;-57
2022/01/15 04:39:34;;;;;;;;;129.00;99.50;;;;;4.07;72.77;102537.47;5038360;28;45718;-58
2022/01/15 04:41:59;;;;;;;;;118.50;101.50;;;;;4.08;72.35;102535.75;5038433;28;46140;-58
2022/01/15 04:44:25;;;;;;;;;116.00;92.00;;;;;4.08;72.75;102539.22;5033772;28;45849;-58
2022/01/15 04:46:52;;;;;;;;;113.33;98.33;;;;;4.09;72.17;102529.66;5038440;28;45511;-58
2022/01/15 04:49:17;;;;;;;;;128.67;99.33;;;;;4.08;72.45;102530.53;5038245;28;45525;-57
2022/01/15 04:51:43;;;;;;;;;124.25;102.25;;;;;4.08;72.42;102534.00;5038400;28;45690;-58
2022/01/15 04:54:08;;;;;;;;;120.00;100.00;;;;;4.08;72.14;102531.38;5038049;28;45367;-58
2022/01/15 04:56:34;;;;;;;;;110.25;84.75;;;;;4.08;72.33;102531.38;5038286;28;45685;-58
2022/01/15 04:59:00;;;;;;;;;124.75;102.00;;;;;4.08;72.51;102533.13;5038336;28;45356;-58
2022/01/15 05:01:25;;;;;;;;;110.00;91.33;;;;;4.03;72.11;102532.28;5037035;28;46192;-57
2022/01/15 05:03:51;;;;;;;;;116.00;88.00;;;;;4.02;72.50;102531.41;5038241;28;45435;-58
2022/01/15 05:06:16;;;;;;;;;107.50;78.75;;;;;4.03;72.51;102534.88;5038205;28;45613;-58
2022/01/15 05:08:44;;;;;;;;;118.67;99.67;;;;;4.01;72.36;102534.03;5038043;28;45470;-58
2022/01/15 05:11:14;;;;;;;;;110.67;92.67;;;;;3.96;72.05;102527.97;5038338;28;45522;-57
2022/01/15 05:13:39;;;;;;;;;108.67;91.33;;;;;3.92;71.98;102530.56;5038246;28;45524;-59
2022/01/15 05:16:05;;;;;;;;;109.67;93.67;;;;;3.92;71.82;102530.56;5038641;28;45377;-57
2022/01/15 05:18:31;;;;;;;;;116.00;96.67;;;;;3.91;72.27;102530.59;5038619;28;45482;-58
2022/01/15 05:20:57;;;;;;;;;104.00;83.67;;;;;3.87;72.01;102516.72;5037565;28;45796;-58
2022/01/15 05:23:23;;;;;;;;;108.67;88.00;;;;;3.85;71.95;102520.16;5037712;28;45455;-58
2022/01/15 05:25:48;;;;;;;;;105.33;86.67;;;;;3.81;72.25;102526.28;5037888;28;45522;-58
2022/01/15 05:28:14;;;;;;;;;109.67;89.67;;;;;3.78;72.35;102516.72;5037908;28;45518;-57
2022/01/15 05:30:39;;;;;;;;;109.33;89.33;;;;;3.76;72.70;102522.81;5037788;28;45921;-57
2022/01/15 05:33:05;;;;;;;;;108.67;92.33;;;;;3.70;72.64;102520.22;5037848;28;45554;-58
2022/01/15 05:35:30;;;;;;;;;113.33;90.00;;;;;3.69;72.66;102521.09;5037736;28;45746;-58
2022/01/15 05:37:57;;;;;;;;;105.67;86.67;;;;;3.67;72.77;102517.63;5037321;28;45689;-58
2022/01/15 05:40:23;;;;;;;;;114.00;88.67;;;;;3.66;72.51;102521.09;5037470;28;45792;-58
2022/01/15 05:42:49;;;;;;;;;108.67;88.33;;;;;3.64;72.53;102528.94;5037703;28;45497;-58
2022/01/15 05:45:15;;;;;;;;;107.33;82.33;;;;;3.64;73.14;102519.38;5034887;28;45746;-58
2022/01/15 05:47:41;;;;;;;;;108.67;83.33;;;;;3.69;72.51;102523.69;5037862;28;45606;-57
2022/01/15 05:50:07;;;;;;;;;112.00;92.67;;;;;3.69;73.12;102534.97;5037363;28;46165;-57
2022/01/15 05:52:33;;;;;;;;;113.00;89.00;;;;;3.68;73.03;102529.78;5037506;28;45364;-58
2022/01/15 05:54:59;;;;;;;;;93.33;74.67;;;;;3.66;72.78;102537.59;5037512;28;45563;-58
2022/01/15 05:57:24;;;;;;;;;116.00;94.00;;;;;3.66;72.67;102534.13;5037660;28;45687;-58
2022/01/15 05:59:51;;;;;;;;;107.33;88.33;;;;;3.65;73.56;102538.47;5037214;28;46277;-58
2022/01/15 06:02:21;;;;;;;;;108.67;92.33;;;;;3.64;72.72;102542.81;5037044;28;45452;-58
2022/01/15 06:04:47;;;;;;;;;115.00;94.00;;;;;3.64;72.79;102537.59;5037448;28;45417;-58
2022/01/15 06:07:13;;;;;;;;;111.33;93.33;;;;;3.64;73.24;102547.16;5037588;28;45675;-57
2022/01/15 06:09:38;;;;;;;;;104.33;85.33;;;;;3.63;72.88;102548.91;5036852;28;45316;-59
2022/01/15 06:12:04;;;;;;;;;108.33;85.00;;;;;3.62;73.61;102543.66;5037593;28;45380;-58
2022/01/15 06:14:30;;;;;;;;;117.67;98.67;;;;;3.63;73.65;102542.78;5022824;28;45828;-58
2022/01/15 06:16:56;;;;;;;;;101.67;81.67;;;;;3.58;73.32;102537.59;5040805;28;45562;-57
2022/01/15 06:19:22;;;;;;;;;105.33;86.00;;;;;3.59;73.54;102541.09;5040449;28;46618;-58
2022/01/15 06:21:48;;;;;;;;;108.33;87.33;;;;;3.59;73.43;102539.34;5040514;28;45555;-57
2022/01/15 06:24:13;;;;;;;;;115.00;95.33;;;;;3.61;73.30;102539.34;5040624;28;45514;-59
2022/01/15 06:26:39;;;;;;;;;103.33;82.33;;;;;3.62;72.69;102536.72;5040927;28;45777;-58
2022/01/15 06:29:05;;;;;;;;;99.67;72.33;;;;;3.60;72.62;102535.00;5040610;28;46079;-58
2022/01/15 06:31:31;;;;;;;;;116.00;89.67;;;;;3.59;73.10;102528.06;5040628;28;45358;-58
2022/01/15 06:33:57;;;;;;;;;103.67;85.33;;;;;3.56;73.32;102526.34;5040528;28;45380;-58
2022/01/15 06:36:23;;;;;;;;;112.67;87.67;;;;;3.56;72.97;102533.28;5040689;28;45676;-58
2022/01/15 06:38:49;;;;;;;;;107.67;84.33;;;;;3.55;73.07;102537.59;5040044;28;46235;-58
2022/01/15 06:41:14;;;;;;;;;105.67;87.00;;;;;3.55;73.05;102529.78;5040465;28;45731;-58
2022/01/15 06:43:40;;;;;;;;;107.00;91.33;;;;;3.55;73.21;102528.91;5038288;28;45415;-58
2022/01/15 06:46:06;;;;;;;;;104.33;79.00;;;;;3.55;73.44;102523.69;5037507;28;45614;-58
2022/01/15 06:48:31;;;;;;;;;107.67;79.33;;;;;3.53;73.07;102518.50;5040103;28;46494;-58
2022/01/15 06:50:57;;;;;;;;;102.33;81.33;;;;;3.53;73.25;102526.31;5039643;28;45441;-58
2022/01/15 06:53:22;;;;;;;;;101.00;79.00;;;;;3.52;73.42;102521.13;5040149;28;45642;-58
2022/01/15 06:55:51;;;;;;;;;110.67;89.33;;;;;3.52;73.55;102513.31;5040023;28;45677;-58
2022/01/15 06:58:17;;;;;;;;;103.33;83.00;;;;;3.52;73.01;102518.50;5040006;28;45542;-58
2022/01/15 07:00:43;;;;;;;;;100.33;78.00;;;;;3.50;73.31;102518.53;5039987;28;45376;-58
2022/01/15 07:03:08;;;;;;;;;98.67;74.33;;;;;3.49;72.88;102508.97;5040042;28;45476;-58
2022/01/15 07:05:34;;;;;;;;;106.33;81.00;;;;;3.49;73.03;102506.38;5040309;28;45581;-58
2022/01/15 07:07:59;;;;;;;;;108.00;88.33;;;;;3.47;74.10;102499.41;5039807;28;46139;-57
2022/01/15 07:10:25;;;;;;;;;105.33;82.33;;;;;3.49;73.46;102495.94;5039893;28;45593;-58
2022/01/15 07:12:52;;;;;;;;;107.67;85.33;;;;;3.48;73.31;102506.38;5035449;28;47545;-58
2022/01/15 07:15:17;;;;;;;;;104.00;82.33;;;;;3.47;73.22;102497.66;5039164;28;45526;-58
2022/01/15 07:17:44;;;;;;;;;105.67;85.00;;;;;3.46;73.08;102497.66;5037711;28;45573;-58
2022/01/15 07:20:11;;;;;;;;;100.33;79.33;;;;;3.44;73.21;102496.81;5045936;28;45447;-57
2022/01/15 07:22:38;;;;;;;;;103.33;79.00;;;;;3.42;73.19;102494.22;5036877;28;45463;-58
2022/01/15 07:25:04;;;;;;;;;101.00;68.67;;;;;3.41;73.16;102496.84;5049562;28;45201;-57
2022/01/15 07:27:30;;;;;;;;;94.33;72.67;;;;;3.42;73.38;102496.81;5042070;28;46224;-57
2022/01/15 07:29:55;;;;;;;;;112.33;92.00;;;;;3.42;73.48;102496.81;5037156;28;45461;-58
2022/01/15 07:32:21;;;;;;;;;101.00;84.00;;;;;3.42;73.11;102503.78;5049931;28;45377;-58
2022/01/15 07:34:46;;;;;;;;;106.33;85.33;;;;;3.42;73.67;102503.78;5059831;28;45411;-58
2022/01/15 07:37:12;;;;;;;;;108.33;84.67;;;;;3.42;72.88;102491.63;5050944;28;45324;-58
2022/01/15 07:39:38;;;;;;;;;106.00;85.00;;;;;3.44;73.55;102492.47;5054932;28;45319;-58
2022/01/15 07:42:04;;;;;;;;;113.67;89.67;;;;;3.45;73.33;102478.56;5056980;28;45462;-58
2022/01/15 07:44:30;;;;;;;;;119.67;94.33;;;;;3.48;73.68;102480.31;5037244;28;45439;-58
2022/01/15 07:46:55;;;;;;;;;107.67;79.33;;;;;3.48;73.57;102485.53;5046892;28;45290;-57
2022/01/15 07:49:21;;;;;;;;;112.33;94.67;;;;;3.49;73.72;102488.13;5037058;28;45427;-58
2022/01/15 07:51:46;;;;;;;;;107.67;86.67;;;;;3.51;73.76;102489.00;5042051;28;45439;-58
2022/01/15 07:54:12;;;;;;;;;108.67;83.00;;;;;3.51;73.60;102486.38;5041448;28;45416;-58
2022/01/15 07:56:37;;;;;;;;;107.00;81.33;;;;;3.50;73.77;102486.38;5041464;28;45269;-55
2022/01/15 07:59:03;;;;;;;;;44.67;21.67;;;;;3.51;73.34;102480.31;5041256;28;45370;-54
2022/01/15 08:01:29;;;;;;;;;108.67;83.33;;;;;3.53;73.30;102483.75;5040371;28;45241;-54
2022/01/15 08:03:55;;;;;;;;;106.00;81.67;;;;;3.54;74.14;102481.16;5040624;28;45273;-56
2022/01/15 08:06:20;;;;;;;;;90.33;68.67;;;;;3.59;74.15;102481.16;5041422;28;45382;-56
2022/01/15 08:08:46;;;;;;;;;107.33;80.67;;;;;3.62;73.51;102476.78;5040136;28;45312;-54
2022/01/15 08:11:11;;;;;;;;;106.00;81.00;;;;;3.64;73.55;102479.41;5039130;28;45460;-57
2022/01/15 08:13:37;;;;;;;;;109.33;87.67;;;;;3.68;73.47;102475.91;5039242;28;45494;-58
2022/01/15 08:16:04;;;;;;;;;111.67;88.33;;;;;3.72;73.44;102476.78;5039578;28;45564;-58
2022/01/15 08:18:31;;;;;;;;;108.67;88.00;;;;;3.75;73.11;102471.56;5040121;28;45443;-58
2022/01/15 08:20:57;;;;;;;;;108.67;85.00;;;;;3.76;73.62;102470.69;5032503;28;45595;-58
2022/01/15 08:23:23;;;;;;;;;110.00;86.67;;;;;3.78;73.09;102480.22;5019852;28;45452;-56
2022/01/15 08:25:48;;;;;;;;;100.33;79.00;;;;;3.81;72.83;102474.16;5002519;28;46594;-57
2022/01/15 08:28:14;;;;;;;;;109.00;88.00;;;;;3.83;73.21;102475.00;5020263;28;45309;-58
2022/01/15 08:30:39;;;;;;;;;107.00;87.33;;;;;3.84;73.22;102480.19;5020686;28;45318;-58
2022/01/15 08:33:05;;;;;;;;;99.33;76.67;;;;;3.85;73.41;102474.09;5020829;28;45353;-57
2022/01/15 08:35:30;;;;;;;;;106.50;81.50;;;;;3.88;73.21;102476.72;5001974;28;47041;-57
2022/01/15 08:37:57;;;;;;;;;98.00;72.67;;;;;3.90;73.31;102474.09;5020421;28;45440;-58
2022/01/15 08:40:24;;;;;;;;;102.33;80.33;;;;;3.93;72.80;102477.56;5002776;28;45385;-57
2022/01/15 08:42:50;;;;;;;;;102.33;84.33;;;;;3.95;73.57;102477.56;5020243;28;45618;-57
2022/01/15 08:45:16;;;;;;;;;100.67;74.67;;;;;3.99;73.40;102479.28;5017520;28;46201;-56
2022/01/15 08:47:42;;;;;;;;;108.00;81.67;;;;;4.02;73.16;102476.66;5020502;28;45507;-57
2022/01/15 08:50:10;;;;;;;;;98.00;77.00;;;;;4.06;72.48;102486.22;5020126;28;45552;-56
2022/01/15 08:52:37;;;;;;;;;95.33;71.67;;;;;4.09;73.17;102482.72;5017770;28;45423;-58
2022/01/15 08:55:07;;;;;;;;;102.00;76.67;;;;;4.12;73.56;102488.78;5019994;28;46061;-58
2022/01/15 08:57:33;;;;;;;;;100.33;80.00;;;;;4.14;72.96;102487.03;5019751;28;45435;-58
2022/01/15 09:00:00;;;;;;;;;102.33;79.00;;;;;4.16;73.27;102495.72;5020063;28;45405;-59
2022/01/15 09:02:25;;;;;;;;;95.33;76.33;;;;;4.18;73.39;102500.91;5020426;28;45293;-58
2022/01/15 09:04:51;;;;;;;;;97.33;76.33;;;;;4.16;73.06;102503.53;5019832;28;45286;-58
2022/01/15 09:07:16;;;;;;;;;104.67;80.00;;;;;4.15;73.22;102493.97;5020247;28;45398;-58
2022/01/15 09:09:43;;;;;;;;;107.33;82.00;;;;;4.17;72.76;102491.38;5019296;28;45469;-58
2022/01/15 09:12:09;;;;;;;;;103.00;77.00;;;;;4.18;72.56;102493.09;5018172;28;45608;-58
2022/01/15 09:14:35;;;;;;;;;100.67;79.00;;;;;4.19;72.60;102500.94;5019064;28;46054;-59
2022/01/15 09:17:00;;;;;;;;;102.67;83.00;;;;;4.22;72.93;102494.81;5019823;28;45484;-59
2022/01/15 09:19:26;;;;;;;;;98.33;78.67;;;;;4.28;72.83;102496.56;5019656;28;45420;-58
2022/01/15 09:21:51;;;;;;;;;105.33;80.00;;;;;4.34;72.37;102497.34;5009951;28;45437;-58
2022/01/15 09:24:17;;;;;;;;;104.33;82.33;;;;;4.41;72.15;102490.38;5019150;28;45467;-59
2022/01/15 09:27:01;;;;;;;;;92.00;71.33;;;;;4.47;72.46;102495.56;5019956;28;45407;-58
2022/01/15 09:32:12;;;;;;;;;99.67;73.33;;;;;4.60;72.65;102493.75;5018912;28;45554;-58
2022/01/15 09:34:39;;;;;;;;;102.67;81.33;;;;;4.63;72.09;102499.81;5019398;28;45434;-59
2022/01/15 09:37:08;;;;;;;;;102.67;79.33;;;;;4.66;72.14;102493.69;5019402;28;45373;-58
2022/01/15 09:39:34;;;;;;;;;105.67;86.33;;;;;4.71;72.27;102505.84;5019438;28;45296;-58
2022/01/15 09:41:59;;;;;;;;;115.67;83.33;;;;;4.75;72.73;102504.09;5019581;28;45360;-59
2022/01/15 09:44:26;;;;;;;;;104.33;84.00;;;;;4.79;71.93;102500.56;5019588;28;45413;-58
2022/01/15 09:46:53;;;;;;;;;107.33;82.67;;;;;4.84;71.44;102503.16;5019409;28;45246;-58
2022/01/15 09:49:23;;;;;;;;;103.33;79.00;;;;;4.87;71.68;102498.78;5022951;28;45506;-58
2022/01/15 09:51:48;;;;;;;;;102.67;80.00;;;;;4.94;72.16;102499.59;5023034;28;45323;-58
2022/01/15 09:54:16;;;;;;;;;109.00;92.00;;;;;5.00;71.76;102494.34;5019879;28;46183;-58
2022/01/15 09:56:42;;;;;;;;;106.67;88.33;;;;;5.07;71.29;102498.63;5023001;28;45384;-58
2022/01/15 09:59:07;;;;;;;;;104.33;90.33;;;;;5.12;72.57;102489.00;5022674;28;45462;-58
2022/01/15 10:01:33;;;;;;;;;105.67;87.33;;;;;5.19;71.89;102487.19;5022999;28;45478;-59
2022/01/15 10:04:00;;;;;;;;;114.67;92.67;;;;;5.25;71.96;102474.09;5022849;28;46241;-58
2022/01/15 10:06:26;;;;;;;;;102.33;81.00;;;;;5.30;71.93;102480.16;5021381;28;45394;-58
2022/01/15 10:09:08;;;;;;;;;120.67;96.33;;;;;5.36;71.09;102473.97;5022707;28;45374;-58
2022/01/15 10:11:51;;;;;;;;;103.33;84.00;;;;;5.42;71.31;102473.91;5022544;28;45426;-58
2022/01/15 10:14:32;;;;;;;;;115.75;99.00;;;;;5.47;71.42;102475.63;5019942;28;45485;-59
2022/01/15 10:17:00;;;;;;;;;107.67;90.33;;;;;5.51;70.18;102479.91;5020201;28;46668;-58
2022/01/15 10:19:35;;;;;;;;;107.33;90.00;;;;;5.56;70.73;102483.34;5020489;28;45184;-58
2022/01/15 10:22:04;;;;;;;;;115.50;94.50;;;;;5.63;70.95;102481.56;5032150;28;45517;-58
2022/01/15 10:24:30;;;;;;;;;110.33;91.33;;;;;5.66;70.40;102478.88;5042299;28;45764;-59
2022/01/15 10:26:56;;;;;;;;;116.00;95.00;;;;;5.71;70.38;102474.47;5042313;28;45439;-58
2022/01/15 10:29:21;;;;;;;;;117.67;96.00;;;;;5.75;70.16;102484.00;5042489;28;45328;-59
2022/01/15 10:31:46;;;;;;;;;118.67;94.33;;;;;5.81;69.74;102485.69;5042625;28;45300;-59
2022/01/15 10:34:28;;;;;;;;;110.33;94.67;;;;;5.86;70.03;102484.78;5042150;28;46448;-59
2022/01/15 10:37:12;;;;;;;;;116.25;96.50;;;;;5.91;69.55;102478.63;5042396;28;45230;-59
2022/01/15 10:39:37;;;;;;;;;112.00;95.67;;;;;5.96;69.84;102462.00;5039656;28;45220;-59
2022/01/15 10:42:14;;;;;;;;;119.33;96.00;;;;;6.00;69.98;102465.44;5042520;28;45200;-59
2022/01/15 10:44:41;;;;;;;;;116.25;97.50;;;;;6.03;70.22;102452.34;5039870;28;45424;-58
2022/01/15 10:47:12;;;;;;;;;119.67;101.33;;;;;6.07;69.80;102454.88;5042243;28;45489;-58
2022/01/15 10:49:40;;;;;;;;;118.67;102.00;;;;;6.10;69.65;102461.84;5039694;28;45292;-58
2022/01/15 10:52:13;;;;;;;;;116.00;97.00;;;;;6.13;69.56;102453.94;5042281;28;45498;-58
2022/01/15 10:54:53;;;;;;;;;120.50;98.25;;;;;6.16;69.48;102446.03;5036560;28;45462;-59
2022/01/15 10:57:20;;;;;;;;;124.75;105.75;;;;;6.18;69.37;102446.03;5040863;28;45304;-58
2022/01/15 11:00:04;;;;;;;;;119.00;102.25;;;;;6.24;68.92;102440.69;5040895;28;45257;-58
2022/01/15 11:02:30;;;;;;;;;120.50;98.75;;;;;6.26;69.44;102442.44;5041258;28;45584;-59
2022/01/15 11:04:55;;;;;;;;;124.00;103.00;;;;;6.30;69.02;102441.50;5041593;28;45562;-59
2022/01/15 11:07:21;;;;;;;;;137.75;106.75;;;;;6.35;69.36;102434.44;5042111;28;45341;-59
2022/01/15 11:09:50;;;;;;;;;119.75;107.25;;;;;6.40;68.87;102440.50;5041654;28;45215;-58
2022/01/15 11:12:18;;;;;;;;;137.00;108.50;;;;;6.45;68.99;102437.78;5041734;28;45486;-57
2022/01/15 11:14:43;;;;;;;;;133.00;108.75;;;;;6.51;68.65;102437.69;5041656;28;45586;-58
2022/01/15 11:17:09;;;;;;;;;134.25;115.00;;;;;6.56;68.50;102433.28;5041884;28;45392;-55
2022/01/15 11:19:36;;;;;;;;;140.75;114.75;;;;;6.61;68.57;102435.81;5041549;28;45357;-55
2022/01/15 11:22:03;;;;;;;;;143.50;112.75;;;;;6.64;68.74;102431.41;5039709;28;45606;-55
2022/01/15 11:24:28;;;;;;;;;151.50;123.75;;;;;6.71;68.65;102426.91;5041166;28;45353;-54
2022/01/15 11:26:57;;;;;;;;;153.00;122.25;;;;;6.77;68.30;102423.31;5023539;28;45290;-55
2022/01/15 11:29:25;;;;;;;;;133.25;118.25;;;;;6.79;68.42;102411.94;5041254;28;45339;-55
2022/01/15 11:32:00;;;;;;;;;146.25;120.50;;;;;6.84;68.23;102419.72;5041837;28;45298;-57